ZTL Weather Bulletin
Prepared: 7/23/2016 12:30 PM by: WN valid for 9 hours
FOR ATC PLANNING PURPOSES
High pressure will remain over southern ZTL and an upper-level disturbance will support scattered thunderstorms north of the IRQ-MCN-MGM line. Cells will move south to southwest at 5-10kts. Expect VFR conditions outside convection under a FEW-SCT050TCU deck. Surface winds will be west to southwest at 5-8kts. Flight Hazards outside of convection: None expected. Altimeters will remain above 29.92ins. Ceilings below 050 are not expected.

Restricted Area Convection: R2102...17-00Z. R3002...None. R3004...18-23z.
FTUS80 KATL 232151 AAA
KATL 232148Z 2322/2424 07008KT P6SM VCSH FEW035 SCT080
      TEMPO 2322/2323 VRB10G20KT 5SM SHRA BKN035
     FM240100 19003KT P6SM SCT150 BKN250
     FM241600 25006KT P6SM SCT040
     FM241800 22007KT P6SM VCSH SCT050 PROB30 2419/2422 4SM TSRA
      BKN040CB
Remark: SCATTERED TS EXPECTED NW/N/NE UNTIL 19Z; ALL QUADS FROM 19-00Z.
FTUS80 KCLT 232200 AAA
KCLT 232158Z 2322/2418 20010KT P6SM VCSH FEW050 BKN250
     FM240000 19003KT P6SM FEW060 SCT250
     FM240300 17002KT P6SM FEW250
     FM241500 19004KT P6SM FEW050

Remark: ISOLATED TS POSSIBLE E/SE/SE/S FROM 19-00Z.
12-18 Hour Forecast Map
Weather Map
Convective Gate Forecast
Convective Gate Forecast
Icing Gate Forecast Icing Gate Forecast


USA.gov is the U.S. government's official web portal to all federal, state and local government web resources and services.